Time;durP1;ratioP1;P1;durP2;ratioP2;P2;SDS_P1;SDS_P2;PMS_P1;PMS_P2;Temp;Humidity;BMP_temperature;BMP_pressure;BME280_temperature;BME280_humidity;BME280_pressure;Samples;Min_cycle;Max_cycle;Signal;HPM_P1;HPM_P2
2023/10/01 00:01:40;;;;;;;10.63;5.40;;;;;;;13.76;76.61;100125.50;7206833;40;20247;31
2023/10/01 00:07:15;;;;;;;6.93;4.77;;;;;;;13.67;77.28;100125.63;7243155;40;20241;31
2023/10/01 00:12:50;;;;;;;8.70;6.25;;;;;;;13.63;76.68;100135.09;7224749;40;20342;31
2023/10/01 00:18:10;;;;;;;10.20;5.80;;;;;;;13.67;77.21;100131.91;7180618;40;20480;31
2023/10/01 00:23:46;;;;;;;9.70;6.00;;;;;;;13.64;77.65;100131.38;7174300;40;20356;31
2023/10/01 00:29:06;;;;;;;8.53;5.20;;;;;;;13.60;76.54;100135.44;7203488;40;21152;31
2023/10/01 00:34:42;;;;;;;9.20;5.90;;;;;;;13.53;76.43;100125.22;7293137;39;20251;31
2023/10/01 00:40:19;;;;;;;13.40;5.90;;;;;;;13.42;76.79;100122.84;7331929;39;20363;31
2023/10/01 00:45:54;;;;;;;12.40;6.00;;;;;;;13.41;76.39;100123.84;7306968;39;20214;31
2023/10/01 00:51:32;;;;;;;12.25;5.85;;;;;;;13.28;77.21;100136.13;7268053;40;20223;31
2023/10/01 00:57:00;;;;;;;10.60;6.93;;;;;;;13.34;77.61;100124.66;7236183;40;20356;31
2023/10/01 01:02:37;;;;;;;8.43;5.37;;;;;;;13.38;77.71;100120.59;7204951;40;20293;31
2023/10/01 01:08:20;;;;;;;12.05;5.15;;;;;;;13.24;77.04;100123.91;7180337;40;20247;31
2023/10/01 01:13:47;;;;;;;9.73;5.73;;;;;;;13.08;77.80;100122.75;7174828;40;20247;31
2023/10/01 01:19:09;;;;;;;13.27;5.67;;;;;;;13.11;77.69;100128.91;7167643;40;20346;31
2023/10/01 01:24:40;;;;;;;12.00;6.63;;;;;;;13.07;77.40;100123.78;7150039;40;20266;31
2023/10/01 01:30:18;;;;;;;12.40;5.70;;;;;;;13.12;77.77;100112.50;7190076;40;20319;31
2023/10/01 01:35:38;;;;;;;11.90;6.40;;;;;;;13.14;77.42;100115.03;7194776;40;20260;31
2023/10/01 01:41:19;;;;;;;11.60;5.60;;;;;;;13.16;78.15;100103.06;7237648;40;20260;31
2023/10/01 01:46:34;;;;;;;11.07;5.97;;;;;;;13.23;77.46;100100.53;7235978;40;20238;31
2023/10/01 01:52:10;;;;;;;9.07;5.20;;;;;;;13.08;78.43;100098.41;7268302;40;20246;31
2023/10/01 01:57:56;;;;;;;9.10;5.30;;;;;;;13.01;77.72;100097.34;7256773;40;20253;31
2023/10/01 02:03:22;;;;;;;9.60;5.37;;;;;;;12.94;77.96;100095.47;7270714;39;20264;31
2023/10/01 02:08:58;;;;;;;10.40;5.10;;;;;;;12.96;77.61;100085.31;7242175;40;20256;31
2023/10/01 02:14:31;;;;;;;9.80;5.50;;;;;;;12.86;78.15;100084.56;7042988;40;20312;31
2023/10/01 02:20:22;;;;;;;11.50;5.80;;;;;;;12.77;78.09;100083.66;7278641;39;20327;31
2023/10/01 02:25:46;;;;;;;11.20;5.83;;;;;;;12.78;78.54;100095.31;7257441;40;20418;31
2023/10/01 02:31:22;;;;;;;10.90;5.70;;;;;;;12.76;79.02;100089.25;7265480;40;20240;31
2023/10/01 02:36:57;;;;;;;9.60;5.34;;;;;;;12.83;77.95;100091.16;7296565;40;20241;31
2023/10/01 02:42:30;;;;;;;8.85;4.90;;;;;;;12.76;77.71;100087.41;7287333;39;20241;31
2023/10/01 02:48:17;;;;;;;9.10;5.30;;;;;;;12.66;77.87;100086.62;7251233;40;20355;31
2023/10/01 02:53:42;;;;;;;9.63;5.00;;;;;;;12.76;77.88;100081.97;7184779;40;20287;31
2023/10/01 02:59:13;;;;;;;10.63;5.50;;;;;;;12.89;77.99;100076.16;7170141;40;20286;31
2023/10/01 03:10:00;;;;;;;11.80;5.90;;;;;;;12.94;78.24;100084.63;7284072;39;21093;31
2023/10/01 03:15:24;;;;;;;9.00;5.50;;;;;;;13.05;78.48;100084.34;7281266;40;21194;31
2023/10/01 03:21:07;;;;;;;9.50;5.35;;;;;;;13.22;77.96;100075.31;7232755;40;20257;31
2023/10/01 03:26:44;;;;;;;7.70;5.10;;;;;;;13.31;77.12;100066.22;7261767;40;20438;31
2023/10/01 03:32:27;;;;;;;8.13;5.07;;;;;;;13.34;76.53;100044.25;7272364;40;20248;31
2023/10/01 03:38:08;;;;;;;9.90;5.20;;;;;;;13.35;75.70;100051.34;7298817;39;21329;31
2023/10/01 03:43:31;;;;;;;11.80;5.90;;;;;;;12.98;76.98;100048.13;7310722;39;20244;31
2023/10/01 03:49:03;;;;;;;8.67;5.47;;;;;;;13.03;78.00;100040.37;7304837;40;20256;31
2023/10/01 03:55:01;;;;;;;8.60;5.03;;;;;;;13.25;77.26;100033.56;7293354;39;20287;31
2023/10/01 04:05:56;;;;;;;9.73;5.47;;;;;;;13.15;76.70;100038.25;7256193;40;20276;31
2023/10/01 04:11:49;;;;;;;9.20;5.40;;;;;;;12.92;77.09;100054.16;7246135;40;20339;31
2023/10/01 04:17:18;;;;;;;9.70;5.60;;;;;;;12.95;77.19;100059.25;7260670;40;20607;31
2023/10/01 04:23:04;;;;;;;9.65;5.50;;;;;;;12.79;76.99;100054.59;7196098;40;20882;31
2023/10/01 04:28:27;;;;;;;8.37;5.37;;;;;;;12.73;77.30;100066.03;7197221;40;21003;31
2023/10/01 04:34:01;;;;;;;10.95;5.30;;;;;;;12.45;77.53;100057.25;7236844;40;20343;31
2023/10/01 04:44:42;;;;;;;8.40;5.40;;;;;;;12.35;78.14;100061.03;7274373;40;21341;31
2023/10/01 04:55:22;;;;;;;7.70;5.23;;;;;;;12.23;77.38;100065.00;7252079;40;20469;31
2023/10/01 05:00:58;;;;;;;9.83;5.43;;;;;;;12.13;78.50;100074.03;7277476;40;20296;31
2023/10/01 05:11:39;;;;;;;8.20;5.30;;;;;;;12.10;78.44;100077.06;7235304;40;21161;31
2023/10/01 05:17:16;;;;;;;13.87;5.70;;;;;;;12.22;78.40;100087.63;7247866;40;20524;31
2023/10/01 05:22:54;;;;;;;10.27;5.70;;;;;;;12.16;78.24;100079.12;7291181;39;20238;31
2023/10/01 05:28:34;;;;;;;8.10;5.00;;;;;;;12.18;78.14;100092.50;7303123;39;21184;31
2023/10/01 05:39:16;;;;;;;7.30;5.10;;;;;;;12.54;77.96;100104.13;7277546;40;20368;31
2023/10/01 05:44:34;;;;;;;9.03;5.60;;;;;;;12.55;77.53;100095.84;7276477;39;20269;31
2023/10/01 05:49:59;;;;;;;7.93;4.73;;;;;;;12.52;78.24;100111.53;7280679;40;20717;31
2023/10/01 05:55:32;;;;;;;8.40;5.13;;;;;;;12.59;77.80;100110.75;7243597;40;20273;31
2023/10/01 06:01:05;;;;;;;8.65;5.15;;;;;;;12.72;77.41;100123.03;7237956;40;20242;31
2023/10/01 06:06:36;;;;;;;9.80;4.80;;;;;;;12.81;77.04;100120.19;7207158;40;20563;31
2023/10/01 06:12:17;;;;;;;10.83;6.07;;;;;;;12.80;76.89;100115.81;7205836;40;20540;31
2023/10/01 06:17:47;;;;;;;8.87;5.50;;;;;;;12.61;77.29;100124.97;7218676;40;20245;31
2023/10/01 06:23:08;;;;;;;7.90;5.10;;;;;;;12.75;77.45;100122.72;7210689;40;20309;31
2023/10/01 06:28:57;;;;;;;;;;;;;;;;;;;;;
2023/10/01 06:34:06;;;;;;;7.23;4.90;;;;;;;12.97;76.83;100127.59;7239144;40;20363;31
2023/10/01 06:39:41;;;;;;;8.27;5.40;;;;;;;12.96;77.56;100128.59;7275010;39;20244;31
2023/10/01 06:45:15;;;;;;;9.03;5.77;;;;;;;13.08;77.35;100136.28;7320299;39;20453;31
2023/10/01 06:50:49;;;;;;;7.60;5.07;;;;;;;13.22;78.14;100126.78;7281155;40;20237;31
2023/10/01 06:56:09;;;;;;;7.40;5.20;;;;;;;13.40;77.97;100135.66;7275492;39;20245;31
2023/10/01 07:01:47;;;;;;;8.73;5.80;;;;;;;13.57;78.78;100133.03;7278391;40;20327;31
2023/10/01 07:07:23;;;;;;;9.55;5.70;;;;;;;13.74;78.49;100137.50;7303211;39;20241;31
2023/10/01 07:12:57;;;;;;;7.80;5.70;;;;;;;13.97;78.77;100130.47;7238150;40;20257;31
2023/10/01 07:18:19;;;;;;;11.25;6.10;;;;;;;14.14;79.09;100123.22;7257939;40;20288;31
2023/10/01 07:23:38;;;;;;;10.03;6.00;;;;;;;14.34;78.21;100128.19;7263193;40;20357;31
2023/10/01 07:29:02;;;;;;;10.33;6.20;;;;;;;14.54;78.17;100130.56;7356910;39;20239;31
2023/10/01 07:34:35;;;;;;;12.00;6.03;;;;;;;14.76;78.44;100132.63;7339286;39;20344;31
2023/10/01 07:40:17;;;;;;;10.47;6.20;;;;;;;14.98;78.26;100140.06;7335017;39;20279;31
2023/10/01 07:45:31;;;;;;;9.60;5.90;;;;;;;15.20;78.10;100146.63;7287676;40;20492;31
2023/10/01 07:51:22;;;;;;;48.17;41.40;;;;;;;15.37;77.79;100150.16;7257687;40;20357;31
2023/10/01 07:56:49;;;;;;;11.03;7.10;;;;;;;15.55;78.00;100145.37;7257701;40;20245;31
2023/10/01 08:02:09;;;;;;;12.70;7.40;;;;;;;15.72;77.89;100147.00;7231098;40;20332;31
2023/10/01 08:07:44;;;;;;;20.65;14.90;;;;;;;15.90;78.29;100153.06;7264719;39;20269;31
2023/10/01 08:13:07;;;;;;;10.10;6.47;;;;;;;16.12;77.63;100148.69;7285492;39;20276;31
2023/10/01 08:18:39;;;;;;;11.10;7.70;;;;;;;16.27;77.57;100155.06;7296052;39;20236;31
2023/10/01 08:24:09;;;;;;;11.97;6.80;;;;;;;16.37;77.57;100161.09;7269520;40;20253;31
2023/10/01 08:40:44;;;;;;;11.60;7.40;;;;;;;16.85;77.42;100159.91;7212032;40;21113;31
2023/10/01 08:46:19;;;;;;;11.82;6.48;;;;;;;17.00;77.19;100163.53;7288966;40;20263;31
2023/10/01 08:52:17;;;;;;;14.13;8.00;;;;;;;17.21;76.69;100162.81;7296016;39;20249;31
2023/10/01 08:57:45;;;;;;;10.50;5.57;;;;;;;17.35;75.55;100150.25;7033220;40;20234;31
2023/10/01 09:03:26;;;;;;;10.75;6.45;;;;;;;17.50;75.94;100149.22;7229529;40;20288;31
2023/10/01 09:08:54;;;;;;;11.37;6.27;;;;;;;17.71;75.61;100144.94;7216567;40;20597;31
2023/10/01 09:14:26;;;;;;;10.00;5.90;;;;;;;17.85;74.67;100152.25;7174980;40;20361;31
2023/10/01 09:24:56;;;;;;;9.82;5.92;;;;;;;18.14;72.87;100151.34;7253124;40;20285;31
2023/10/01 09:30:35;;;;;;;11.75;5.75;;;;;;;18.26;72.62;100147.06;7278337;39;20274;31
2023/10/01 09:35:59;;;;;;;9.75;5.75;;;;;;;18.36;72.15;100144.88;7297999;39;20243;31
2023/10/01 09:41:31;;;;;;;9.63;5.47;;;;;;;18.51;72.24;100151.12;7299049;40;20347;31
2023/10/01 09:47:10;;;;;;;11.88;5.75;;;;;;;18.61;72.15;100134.44;7267405;40;21343;31
2023/10/01 09:52:49;;;;;;;9.27;5.57;;;;;;;18.80;70.86;100142.00;7291302;39;20244;31
2023/10/01 09:58:25;;;;;;;9.80;5.73;;;;;;;18.95;72.03;100128.25;7279870;40;21222;31
2023/10/01 10:04:04;;;;;;;12.05;6.57;;;;;;;19.16;71.39;100120.00;7274639;39;20240;31
2023/10/01 10:09:39;;;;;;;9.60;5.85;;;;;;;19.26;70.32;100124.06;7263223;40;20686;31
2023/10/01 10:15:16;;;;;;;9.23;5.50;;;;;;;19.44;69.71;100129.03;7237285;40;20331;31
2023/10/01 10:20:51;;;;;;;9.30;5.70;;;;;;;19.52;69.07;100117.97;7179631;40;20242;31
2023/10/01 10:26:26;;;;;;;10.60;6.30;;;;;;;19.66;69.03;100110.66;7176909;40;20238;31
2023/10/01 10:32:01;;;;;;;11.37;5.57;;;;;;;19.83;67.73;100106.53;7217794;40;20254;31
2023/10/01 10:38:01;;;;;;;9.90;5.40;;;;;;;20.02;67.62;100108.50;7294617;39;20329;31
2023/10/01 10:43:22;;;;;;;11.65;6.35;;;;;;;20.15;67.91;100104.94;7263489;40;20238;31
2023/10/01 10:49:03;;;;;;;10.00;5.60;;;;;;;20.29;66.66;100101.19;7277518;40;20352;31
2023/10/01 10:54:45;;;;;;;10.70;6.10;;;;;;;20.49;65.27;100102.09;7289386;40;20333;31
2023/10/01 10:59:59;;;;;;;13.05;5.35;;;;;;;20.82;65.44;100101.31;7339130;39;20252;31
2023/10/01 11:05:20;;;;;;;10.70;5.50;;;;;;;21.03;64.08;100104.66;7318748;39;20247;31
2023/10/01 11:11:10;;;;;;;10.40;6.20;;;;;;;21.24;61.99;100087.16;7306534;39;20299;31
2023/10/01 11:16:18;;;;;;;9.40;5.90;;;;;;;21.48;61.92;100093.88;7289933;39;20341;31
2023/10/01 11:22:00;;;;;;;8.60;5.77;;;;;;;21.67;61.56;100089.38;7306216;39;20247;31
2023/10/01 11:27:44;;;;;;;10.80;6.10;;;;;;;21.83;59.48;100075.16;7257953;40;20252;31
2023/10/01 11:33:29;;;;;;;10.55;6.53;;;;;;;22.10;57.91;100074.00;7258081;40;22089;31
2023/10/01 11:38:58;;;;;;;10.55;6.15;;;;;;;22.34;57.92;100070.47;7249306;40;20261;31
2023/10/01 11:44:43;;;;;;;11.07;6.60;;;;;;;22.42;56.94;100064.69;7179646;40;20419;31
2023/10/01 11:50:23;;;;;;;10.90;6.32;;;;;;;22.64;56.19;100064.34;7223767;40;20250;31
2023/10/01 11:55:35;;;;;;;10.20;6.30;;;;;;;22.67;56.14;100058.41;7208306;40;20293;31
2023/10/01 12:01:10;;;;;;;10.45;6.70;;;;;;;22.82;55.25;100045.16;7215018;40;20273;31
2023/10/01 12:06:47;;;;;;;11.10;6.10;;;;;;;22.85;56.27;100033.75;7227488;40;20261;31
2023/10/01 12:12:08;;;;;;;10.80;5.97;;;;;;;23.05;55.46;100028.88;7247359;40;20241;31
2023/10/01 12:17:44;;;;;;;9.20;5.93;;;;;;;23.10;54.68;100022.69;7287888;40;20311;31
2023/10/01 12:23:16;;;;;;;9.20;6.00;;;;;;;23.12;55.05;100015.91;7249455;40;20339;31
2023/10/01 12:34:29;;;;;;;12.13;7.10;;;;;;;23.33;53.87;100007.22;7237359;40;20633;31
2023/10/01 12:40:16;;;;;;;10.63;6.57;;;;;;;23.52;53.75;99996.22;7299513;39;20298;31
2023/10/01 12:45:47;;;;;;;13.07;6.20;;;;;;;23.68;51.98;99998.34;7285930;39;20240;31
2023/10/01 12:51:21;;;;;;;12.07;6.85;;;;;;;23.65;52.94;99990.56;7214431;40;20309;31
2023/10/01 12:57:09;;;;;;;10.50;6.60;;;;;;;23.81;52.21;99984.38;7239052;40;20339;31
2023/10/01 13:02:28;;;;;;;10.45;6.53;;;;;;;24.01;51.77;99992.34;7194327;40;20246;31
2023/10/01 13:08:05;;;;;;;9.90;6.20;;;;;;;23.99;50.90;99981.59;7231416;40;20241;31
2023/10/01 13:13:42;;;;;;;10.37;6.50;;;;;;;24.13;52.08;99977.53;7241000;40;20415;31
2023/10/01 13:19:01;;;;;;;11.82;7.28;;;;;;;24.12;51.72;99978.63;7216992;40;20339;31
2023/10/01 13:30:18;;;;;;;12.06;6.58;;;;;;;24.27;50.89;99983.72;7303631;39;20308;31
2023/10/01 13:35:36;;;;;;;11.10;6.80;;;;;;;24.24;51.44;99973.16;7266473;40;20292;31
2023/10/01 14:08:53;;;;;;;12.73;7.30;;;;;;;24.24;50.29;99935.44;7352561;39;20240;31
2023/10/01 14:14:33;;;;;;;13.65;7.62;;;;;;;24.32;49.44;99925.97;7361479;39;20259;31
2023/10/01 14:20:18;;;;;;;;;;;;;;;;;;;;;
2023/10/01 14:25:53;;;;;;;12.65;7.25;;;;;;;24.23;50.80;99917.22;7318021;39;20340;31
2023/10/01 14:37:16;;;;;;;12.10;7.70;;;;;;;24.03;49.88;99900.16;7276094;39;20492;31
2023/10/01 14:42:36;;;;;;;14.05;8.30;;;;;;;23.90;50.35;99903.13;7277800;40;20382;31
2023/10/01 14:48:07;;;;;;;11.18;6.85;;;;;;;23.92;49.70;99897.34;7245382;40;20591;31
2023/10/01 14:53:41;;;;;;;10.97;7.27;;;;;;;23.79;50.46;99895.66;7278381;40;20238;31
2023/10/01 14:59:20;;;;;;;13.32;7.80;;;;;;;23.82;49.40;99884.19;7253474;40;20251;31
2023/10/01 15:04:56;;;;;;;13.53;7.43;;;;;;;23.74;50.08;99890.84;7278826;40;20260;31
2023/10/01 15:10:33;;;;;;;12.88;7.50;;;;;;;23.60;50.04;99894.06;7215335;40;20250;31
2023/10/01 15:16:02;;;;;;;13.63;7.50;;;;;;;23.50;49.99;99891.00;7201521;40;20399;31
2023/10/01 15:21:31;;;;;;;12.10;7.30;;;;;;;23.39;49.92;99889.84;7249941;40;20237;31
2023/10/01 15:27:04;;;;;;;11.27;7.10;;;;;;;23.33;50.44;99891.66;7066714;39;21187;31
2023/10/01 15:32:42;;;;;;;12.73;7.40;;;;;;;23.32;50.93;99898.22;7287103;39;20271;31
2023/10/01 15:38:02;;;;;;;10.52;6.98;;;;;;;23.32;50.15;99898.22;7241274;40;20269;31
2023/10/01 15:48:48;;;;;;;13.10;7.30;;;;;;;23.13;49.01;99882.78;7299130;39;20698;31
2023/10/01 15:54:24;;;;;;;13.00;7.05;;;;;;;23.03;50.24;99873.44;7335506;39;20392;31
2023/10/01 15:59:58;;;;;;;12.15;7.55;;;;;;;23.03;50.27;99879.78;7332355;39;20528;31
2023/10/01 16:05:23;;;;;;;10.63;6.72;;;;;;;22.96;50.27;99862.50;7343097;39;20236;31
2023/10/01 16:11:00;;;;;;;10.32;6.55;;;;;;;22.81;49.18;99875.81;7307919;39;20251;31
2023/10/01 16:16:35;;;;;;;11.82;6.70;;;;;;;22.77;49.73;99872.66;7248842;39;20347;31
2023/10/01 16:22:18;;;;;;;12.25;7.53;;;;;;;22.79;50.97;99876.03;7276543;40;20241;31
2023/10/01 16:27:40;;;;;;;11.60;7.20;;;;;;;22.64;51.96;99880.19;7208415;39;20600;31
2023/10/01 16:33:04;;;;;;;13.02;6.82;;;;;;;22.60;52.78;99882.53;7280737;39;20256;31
2023/10/01 16:38:37;;;;;;;12.50;7.90;;;;;;;22.48;54.79;99874.22;7315781;39;20240;31
2023/10/01 16:43:56;;;;;;;14.35;7.35;;;;;;;22.21;56.39;99874.69;7298572;39;20564;31
2023/10/01 16:49:30;;;;;;;12.20;7.47;;;;;;;21.99;58.19;99877.84;7312749;39;20373;31
2023/10/01 16:55:06;;;;;;;16.42;7.87;;;;;;;21.78;58.86;99878.19;7282257;39;20249;31
2023/10/01 17:00:41;;;;;;;12.68;7.30;;;;;;;21.54;59.58;99877.06;7278598;40;20238;31
2023/10/01 17:06:18;;;;;;;15.27;8.60;;;;;;;21.29;59.91;99867.94;7267603;40;20307;31
2023/10/01 17:11:55;;;;;;;14.40;7.70;;;;;;;21.00;61.02;99879.47;7199633;40;20254;31
2023/10/01 17:17:33;;;;;;;13.00;7.80;;;;;;;20.79;61.26;99871.53;7218698;40;20238;31
2023/10/01 17:23:07;;;;;;;14.20;7.90;;;;;;;20.54;62.56;99877.72;7238291;40;20244;31
2023/10/01 17:28:53;;;;;;;11.93;7.32;;;;;;;20.32;63.20;99870.78;7171533;40;20341;31
2023/10/01 17:34:28;;;;;;;13.45;7.62;;;;;;;20.20;62.97;99877.94;7154150;40;20309;31
2023/10/01 17:40:17;;;;;;;13.70;7.60;;;;;;;20.03;61.93;99882.16;7158756;40;20406;31
2023/10/01 17:45:47;;;;;;;12.80;7.07;;;;;;;19.87;62.84;99877.13;7271338;40;20246;31
2023/10/01 17:51:08;;;;;;;13.00;7.30;;;;;;;19.75;62.93;99882.34;7204640;40;20238;31
2023/10/01 17:56:35;;;;;;;15.00;7.95;;;;;;;19.65;63.23;99892.88;7266933;40;20240;31
2023/10/01 18:07:19;;;;;;;12.96;7.34;;;;;;;19.29;64.15;99887.72;7282914;39;20256;31
2023/10/01 18:12:43;;;;;;;11.97;7.33;;;;;;;19.12;63.87;99898.19;7259151;40;20355;31
2023/10/01 18:18:13;;;;;;;12.83;6.93;;;;;;;18.84;65.64;99892.78;7310999;39;20240;31
2023/10/01 18:23:48;;;;;;;12.40;6.90;;;;;;;18.68;65.88;99893.16;7309531;39;20276;31
2023/10/01 18:34:30;;;;;;;12.43;7.33;;;;;;;18.51;65.96;99894.47;7298108;39;20546;31
2023/10/01 18:45:10;;;;;;;11.97;7.20;;;;;;;18.37;65.40;99900.91;7358609;39;21105;31
2023/10/01 18:55:47;;;;;;;14.30;7.70;;;;;;;18.12;66.11;99891.47;7269911;40;20292;31
2023/10/01 19:01:22;;;;;;;13.65;7.35;;;;;;;18.05;66.72;99885.09;7277450;40;20245;31
2023/10/01 19:06:58;;;;;;;12.50;7.00;;;;;;;17.83;67.12;99898.78;7257897;40;20346;31
2023/10/01 19:12:34;;;;;;;14.77;6.93;;;;;;;17.65;67.60;99895.66;7203062;40;20250;31
2023/10/01 19:17:54;;;;;;;12.70;7.20;;;;;;;17.67;67.55;99901.78;7213932;40;20270;31
2023/10/01 19:23:14;;;;;;;12.02;7.25;;;;;;;17.67;66.80;99896.34;7274913;39;20331;31
2023/10/01 19:28:49;;;;;;;12.65;6.65;;;;;;;17.61;67.18;99891.66;7287328;39;20380;31
2023/10/01 19:39:40;;;;;;;12.60;6.80;;;;;;;17.35;68.02;99889.47;7316943;39;20262;31
2023/10/01 19:50:12;;;;;;;9.97;6.33;;;;;;;16.98;68.71;99903.28;7305502;39;20742;31
2023/10/01 20:00:51;;;;;;;12.80;7.07;;;;;;;16.76;69.42;99898.81;7281362;39;20307;31
2023/10/01 20:11:31;;;;;;;15.90;7.30;;;;;;;16.65;69.71;99897.41;7312471;39;21268;31
2023/10/01 20:16:56;;;;;;;13.50;6.70;;;;;;;16.61;69.35;99888.78;7280074;40;20355;31
2023/10/01 20:27:32;;;;;;;12.35;7.05;;;;;;;16.50;70.59;99882.91;7299378;40;20264;31
2023/10/01 20:33:11;;;;;;;12.90;7.30;;;;;;;16.37;70.87;99885.44;7232752;39;20567;31
2023/10/01 20:43:50;;;;;;;13.23;7.30;;;;;;;16.31;71.36;99875.31;7296480;39;20292;31
2023/10/01 20:49:11;;;;;;;10.40;6.77;;;;;;;16.24;71.03;99886.94;7272177;39;20315;31
2023/10/01 20:54:30;;;;;;;13.00;7.30;;;;;;;16.17;71.10;99882.44;7317811;39;20270;31
2023/10/01 21:00:22;;;;;;;13.40;7.50;;;;;;;16.14;71.83;99878.22;7318527;39;20314;31
2023/10/01 21:05:47;;;;;;;12.23;7.17;;;;;;;16.17;72.23;99877.84;7251198;40;20315;31
2023/10/01 21:11:07;;;;;;;12.50;7.25;;;;;;;16.29;72.08;99869.19;7242143;40;20344;31
2023/10/01 21:16:44;;;;;;;12.70;7.15;;;;;;;16.33;71.76;99865.91;7235780;40;20364;31
2023/10/01 21:27:08;;;;;;;14.80;6.60;;;;;;;16.44;72.03;99868.19;7245392;40;21317;31
2023/10/01 21:32:43;;;;;;;11.23;6.47;;;;;;;16.39;72.75;99859.75;7284434;40;20257;31
2023/10/01 21:43:08;;;;;;;11.20;6.70;;;;;;;16.33;71.82;99849.59;7274560;40;20371;31
2023/10/01 21:48:44;;;;;;;13.00;7.00;;;;;;;16.16;72.02;99853.53;7298816;39;20319;31
2023/10/01 21:54:20;;;;;;;11.10;7.00;;;;;;;15.97;72.79;99849.47;7276985;40;20234;31
2023/10/01 21:59:43;;;;;;;11.80;7.20;;;;;;;15.86;73.13;99847.22;7238881;40;20227;31
2023/10/01 22:05:16;;;;;;;10.90;6.50;;;;;;;15.70;74.42;99842.78;7241954;40;20275;31
2023/10/01 22:10:51;;;;;;;11.27;6.67;;;;;;;15.62;74.93;99842.00;7256920;40;20238;31
2023/10/01 22:16:33;;;;;;;11.00;6.60;;;;;;;15.59;74.55;99840.50;7286970;40;20345;31
2023/10/01 22:22:03;;;;;;;12.80;6.90;;;;;;;15.60;74.90;99844.91;7255819;40;20349;31
2023/10/01 22:27:23;;;;;;;14.20;6.70;;;;;;;15.46;74.43;99842.94;7229397;40;20251;31
2023/10/01 22:32:58;;;;;;;15.60;6.40;;;;;;;15.35;75.50;99840.66;7251990;40;20223;31
2023/10/01 22:38:29;;;;;;;13.60;6.30;;;;;;;15.36;75.24;99845.06;6994897;40;21177;31
2023/10/01 22:44:10;;;;;;;12.03;6.73;;;;;;;15.21;75.65;99836.88;7245086;40;20263;31
2023/10/01 22:49:41;;;;;;;11.23;6.50;;;;;;;15.18;75.79;99837.19;7297307;39;20264;31
2023/10/01 22:55:22;;;;;;;12.77;6.90;;;;;;;15.06;75.93;99827.78;7216720;40;20359;31
2023/10/01 23:00:40;;;;;;;11.00;6.10;;;;;;;15.06;75.85;99827.78;7196778;40;20410;31
2023/10/01 23:06:18;;;;;;;9.55;5.90;;;;;;;15.07;76.48;99824.06;7237536;40;20264;31
2023/10/01 23:16:59;;;;;;;11.90;6.40;;;;;;;15.28;77.17;99823.38;7223120;40;20258;31
2023/10/01 23:27:53;;;;;;;12.10;6.30;;;;;;;15.47;75.56;99816.63;7303600;39;20360;31
2023/10/01 23:33:08;;;;;;;11.25;6.60;;;;;;;15.43;75.44;99807.16;7257169;40;20282;31
2023/10/01 23:38:54;;;;;;;12.95;6.80;;;;;;;15.34;76.92;99803.66;7306991;39;20382;31
2023/10/01 23:49:24;;;;;;;10.57;6.60;;;;;;;15.41;77.08;99798.31;7344381;39;20260;31
2023/10/01 23:59:48;;;;;;;11.50;6.60;;;;;;;15.58;75.46;99805.34;7358620;39;21172;31
